createdAt,value
2023-07-08T00:01:11.748Z,5.18
2023-07-08T00:03:38.464Z,4.97
2023-07-08T00:06:05.081Z,6.10
2023-07-08T00:08:31.537Z,5.05
2023-07-08T00:10:58.875Z,5.15
2023-07-08T00:13:27.928Z,5.80
2023-07-08T00:15:54.647Z,5.55
2023-07-08T00:18:21.405Z,5.60
2023-07-08T00:20:50.347Z,5.60
2023-07-08T00:23:17.680Z,5.00
2023-07-08T00:25:44.611Z,5.03
2023-07-08T00:28:14.936Z,5.05
2023-07-08T00:30:41.536Z,4.75
2023-07-08T00:33:08.371Z,5.28
2023-07-08T00:35:37.545Z,5.15
2023-07-08T00:38:28.275Z,5.72
2023-07-08T00:41:11.053Z,4.80
2023-07-08T00:43:39.061Z,5.40
2023-07-08T00:46:28.478Z,5.30
2023-07-08T00:49:15.375Z,4.70
2023-07-08T00:51:42.688Z,4.40
2023-07-08T00:54:13.995Z,4.53
2023-07-08T00:57:03.992Z,4.75
2023-07-08T00:59:33.082Z,4.25
2023-07-08T01:02:03.150Z,4.00
2023-07-08T01:04:36.081Z,4.10
2023-07-08T01:07:04.357Z,4.15
2023-07-08T01:09:43.079Z,3.85
2023-07-08T01:12:15.689Z,4.55
2023-07-08T01:14:44.418Z,4.53
2023-07-08T01:17:14.916Z,3.80
2023-07-08T01:19:46.018Z,4.90
2023-07-08T01:22:12.909Z,4.78
2023-07-08T01:24:44.563Z,4.50
2023-07-08T01:27:14.867Z,4.78
2023-07-08T01:29:41.778Z,4.70
2023-07-08T01:32:15.064Z,4.25
2023-07-08T01:34:41.579Z,4.40
2023-07-08T01:37:13.226Z,4.55
2023-07-08T01:39:39.834Z,4.57
2023-07-08T01:42:06.555Z,4.38
2023-07-08T01:44:35.444Z,4.28
2023-07-08T01:47:09.979Z,4.53
2023-07-08T01:49:39.658Z,4.38
2023-07-08T01:52:08.506Z,4.28
2023-07-08T01:54:35.096Z,3.88
2023-07-08T01:57:04.275Z,3.95
2023-07-08T01:59:30.768Z,4.25
2023-07-08T02:01:57.980Z,4.03
2023-07-08T02:04:26.003Z,4.20
2023-07-08T02:06:54.393Z,4.40
2023-07-08T02:09:21.725Z,3.97
2023-07-08T02:11:48.412Z,4.43
2023-07-08T02:14:15.535Z,4.20
2023-07-08T02:16:42.057Z,3.97
2023-07-08T02:19:09.058Z,4.43
2023-07-08T02:21:35.463Z,4.05
2023-07-08T02:24:02.773Z,4.32
2023-07-08T02:26:29.236Z,4.43
2023-07-08T02:28:55.715Z,4.20
2023-07-08T02:31:25.800Z,4.05
2023-07-08T02:33:53.200Z,4.00
2023-07-08T02:36:20.545Z,4.25
2023-07-08T02:38:47.037Z,3.83
2023-07-08T02:41:13.696Z,3.95
2023-07-08T02:43:40.489Z,4.07
2023-07-08T02:46:07.011Z,4.47
2023-07-08T02:48:33.864Z,4.55
2023-07-08T02:51:02.228Z,5.13
2023-07-08T02:53:29.023Z,4.57
2023-07-08T02:55:56.074Z,4.40
2023-07-08T02:58:22.588Z,4.60
2023-07-08T03:00:56.846Z,4.07
2023-07-08T03:03:23.931Z,4.63
2023-07-08T03:06:00.290Z,4.07
2023-07-08T03:08:28.283Z,4.03
2023-07-08T03:10:58.491Z,4.88
2023-07-08T03:13:26.200Z,4.28
2023-07-08T03:15:53.023Z,4.55
2023-07-08T03:18:22.372Z,4.13
2023-07-08T03:20:49.927Z,4.10
2023-07-08T03:23:16.900Z,4.32
2023-07-08T03:25:43.746Z,4.70
2023-07-08T03:28:16.277Z,4.50
2023-07-08T03:30:44.038Z,3.83
2023-07-08T03:33:11.413Z,4.47
2023-07-08T03:35:42.353Z,4.05
2023-07-08T03:38:08.796Z,4.45
2023-07-08T03:40:35.771Z,4.28
2023-07-08T03:43:02.626Z,4.43
2023-07-08T03:45:29.251Z,4.20
2023-07-08T03:47:55.924Z,4.47
2023-07-08T03:50:25.965Z,4.85
2023-07-08T03:52:54.379Z,4.43
2023-07-08T03:55:21.464Z,4.28
2023-07-08T03:57:49.086Z,4.15
2023-07-08T04:00:16.277Z,4.00
2023-07-08T04:02:44.354Z,4.32
2023-07-08T04:05:20.954Z,4.43
2023-07-08T04:07:48.743Z,4.40
2023-07-08T04:10:16.559Z,4.15
2023-07-08T04:12:43.896Z,4.57
2023-07-08T04:15:11.786Z,4.20
2023-07-08T04:17:46.366Z,4.70
2023-07-08T04:20:16.521Z,4.82
2023-07-08T04:22:43.385Z,4.03
2023-07-08T04:25:13.210Z,4.40
2023-07-08T04:27:40.860Z,4.28
2023-07-08T04:30:08.739Z,4.30
2023-07-08T04:32:35.791Z,4.53
2023-07-08T04:35:02.526Z,4.32
2023-07-08T04:37:29.033Z,4.72
2023-07-08T04:39:55.719Z,4.78
2023-07-08T04:42:22.244Z,4.10
2023-07-08T04:44:51.033Z,4.57
2023-07-08T04:47:17.811Z,4.28
2023-07-08T04:49:44.953Z,3.97
2023-07-08T04:52:11.774Z,3.90
2023-07-08T04:54:38.228Z,4.07
2023-07-08T04:57:05.906Z,4.38
2023-07-08T04:59:35.534Z,4.15
2023-07-08T05:02:02.854Z,4.07
2023-07-08T05:04:29.448Z,4.82
2023-07-08T05:06:56.552Z,3.97
2023-07-08T05:09:26.608Z,4.38
2023-07-08T05:11:54.030Z,4.63
2023-07-08T05:14:20.571Z,4.32
2023-07-08T05:16:47.287Z,4.57
2023-07-08T05:19:13.990Z,4.63
2023-07-08T05:21:41.002Z,4.25
2023-07-08T05:24:08.894Z,4.35
2023-07-08T05:26:35.551Z,4.25
2023-07-08T05:29:02.325Z,4.43
2023-07-08T05:33:59.449Z,4.60
2023-07-08T05:36:26.304Z,4.40
2023-07-08T05:38:52.758Z,5.22
2023-07-08T05:41:19.438Z,4.57
2023-07-08T05:43:47.707Z,4.25
2023-07-08T05:46:14.486Z,4.00
2023-07-08T05:48:41.582Z,3.58
2023-07-08T05:51:08.290Z,4.28
2023-07-08T05:53:34.944Z,4.35
2023-07-08T05:56:04.358Z,3.60
2023-07-08T05:58:31.102Z,3.97
2023-07-08T06:00:59.064Z,4.60
2023-07-08T06:03:26.496Z,4.00
2023-07-08T06:05:53.612Z,4.28
2023-07-08T06:08:20.920Z,3.92
2023-07-08T06:10:48.132Z,4.25
2023-07-08T06:13:14.870Z,4.97
2023-07-08T06:15:42.660Z,4.22
2023-07-08T06:18:09.505Z,4.50
2023-07-08T06:20:36.632Z,4.57
2023-07-08T06:23:03.945Z,4.35
2023-07-08T06:25:30.948Z,4.53
2023-07-08T06:27:57.487Z,4.00
2023-07-08T06:30:24.108Z,4.15
2023-07-08T06:32:50.667Z,4.15
2023-07-08T06:35:17.322Z,4.13
2023-07-08T06:37:44.136Z,4.10
2023-07-08T06:40:11.176Z,4.05
2023-07-08T06:42:37.783Z,4.18
2023-07-08T06:45:04.724Z,4.05
2023-07-08T06:47:31.254Z,4.40
2023-07-08T06:49:59.752Z,4.47
2023-07-08T06:52:27.386Z,4.13
2023-07-08T06:54:54.118Z,3.60
2023-07-08T06:57:20.532Z,4.00
2023-07-08T06:59:47.113Z,4.22
2023-07-08T07:02:14.464Z,4.07
2023-07-08T07:04:41.142Z,4.10
2023-07-08T07:07:07.693Z,4.53
2023-07-08T07:09:34.761Z,4.20
2023-07-08T07:12:01.496Z,4.15
2023-07-08T07:17:08.471Z,4.03
2023-07-08T07:19:36.091Z,4.00
2023-07-08T07:22:03.154Z,4.22
2023-07-08T07:24:30.676Z,3.83
2023-07-08T07:26:57.581Z,4.30
2023-07-08T07:29:25.015Z,4.65
2023-07-08T07:31:52.783Z,4.70
2023-07-08T07:34:19.969Z,4.45
2023-07-08T07:36:47.355Z,3.90
2023-07-08T07:39:14.177Z,4.50
2023-07-08T07:41:40.810Z,4.03
2023-07-08T07:44:08.170Z,3.90
2023-07-08T07:46:35.019Z,4.13
2023-07-08T07:49:02.896Z,4.22
2023-07-08T07:51:29.489Z,4.70
2023-07-08T07:53:56.578Z,4.63
2023-07-08T07:56:25.477Z,3.97
2023-07-08T07:58:53.622Z,4.03
2023-07-08T08:01:21.108Z,4.50
2023-07-08T08:03:51.944Z,4.03
2023-07-08T08:06:19.099Z,3.85
2023-07-08T08:08:46.480Z,3.80
2023-07-08T08:11:14.500Z,3.88
2023-07-08T08:13:41.343Z,3.60
2023-07-08T08:16:08.186Z,4.28
2023-07-08T08:18:35.307Z,3.67
2023-07-08T08:21:02.080Z,3.67
2023-07-08T08:23:29.193Z,3.45
2023-07-08T08:25:55.940Z,3.75
2023-07-08T08:28:23.221Z,3.83
2023-07-08T08:30:51.098Z,4.00
2023-07-08T08:33:19.572Z,3.60
2023-07-08T08:35:47.182Z,3.70
2023-07-08T08:38:14.103Z,3.58
2023-07-08T08:40:43.391Z,4.05
2023-07-08T08:43:23.718Z,3.50
2023-07-08T08:46:11.144Z,3.75
2023-07-08T08:48:50.836Z,3.20
2023-07-08T08:51:17.880Z,3.58
2023-07-08T08:53:47.070Z,3.15
2023-07-08T08:56:41.271Z,3.25
2023-07-08T08:59:27.689Z,3.10
2023-07-08T09:01:56.210Z,3.00
2023-07-08T09:04:30.420Z,2.72
2023-07-08T09:07:07.664Z,2.92
2023-07-08T09:09:50.834Z,3.10
2023-07-08T09:12:26.443Z,2.97
2023-07-08T09:14:53.105Z,3.40
2023-07-08T09:17:37.142Z,3.03
2023-07-08T09:20:05.068Z,2.88
2023-07-08T09:22:41.751Z,3.25
2023-07-08T09:25:29.973Z,3.03
2023-07-08T09:27:57.052Z,2.80
2023-07-08T09:30:25.983Z,2.92
2023-07-08T09:32:52.939Z,2.85
2023-07-08T09:35:26.842Z,3.35
2023-07-08T09:37:53.928Z,2.83
2023-07-08T09:40:22.759Z,3.03
2023-07-08T09:42:57.770Z,2.95
2023-07-08T09:45:25.904Z,3.08
2023-07-08T09:48:02.815Z,2.80
2023-07-08T09:50:32.953Z,2.92
2023-07-08T09:53:03.155Z,3.17
2023-07-08T09:55:30.042Z,3.03
2023-07-08T09:57:59.286Z,2.63
2023-07-08T10:00:41.371Z,3.05
2023-07-08T10:03:34.891Z,3.17
2023-07-08T10:06:15.571Z,3.38
2023-07-08T10:08:46.887Z,3.00
2023-07-08T10:11:35.580Z,3.00
2023-07-08T10:14:22.142Z,2.65
2023-07-08T10:16:48.826Z,3.20
2023-07-08T10:19:18.650Z,2.80
2023-07-08T10:21:52.131Z,3.13
2023-07-08T10:24:34.942Z,2.85
2023-07-08T10:27:33.785Z,2.70
2023-07-08T10:30:19.301Z,3.08
2023-07-08T10:33:16.420Z,3.00
2023-07-08T10:36:06.132Z,2.75
2023-07-08T10:38:47.979Z,3.40
2023-07-08T10:41:58.483Z,3.00
2023-07-08T10:44:31.051Z,3.30
2023-07-08T10:47:07.442Z,3.20
2023-07-08T10:49:50.625Z,3.83
2023-07-08T10:52:39.056Z,3.13
2023-07-08T10:55:08.969Z,3.35
2023-07-08T10:57:44.712Z,3.50
2023-07-08T11:00:28.694Z,3.33
2023-07-08T11:02:55.272Z,3.00
2023-07-08T11:05:41.355Z,3.53
2023-07-08T11:08:09.988Z,2.88
2023-07-08T11:11:13.880Z,3.25
2023-07-08T11:13:59.719Z,3.67
2023-07-08T11:16:38.093Z,3.13
2023-07-08T11:19:14.919Z,3.92
2023-07-08T11:21:47.379Z,3.50
2023-07-08T11:24:23.072Z,3.80
2023-07-08T11:27:11.514Z,3.17
2023-07-08T11:29:44.044Z,3.65
2023-07-08T11:32:16.123Z,3.60
2023-07-08T11:34:45.839Z,3.35
2023-07-08T11:37:14.603Z,3.15
2023-07-08T11:39:46.544Z,3.55
2023-07-08T11:42:37.616Z,3.20
2023-07-08T11:45:25.530Z,3.88
2023-07-08T11:47:52.252Z,3.80
2023-07-08T11:50:37.150Z,3.50
2023-07-08T11:55:55.565Z,3.55
2023-07-08T11:58:24.793Z,3.58
2023-07-08T12:01:06.195Z,3.50
2023-07-08T12:03:38.729Z,3.97
2023-07-08T12:06:27.060Z,3.92
2023-07-08T12:09:14.235Z,3.42
2023-07-08T12:11:45.188Z,3.47
2023-07-08T12:14:12.345Z,3.83
2023-07-08T12:16:39.305Z,4.13
2023-07-08T12:19:10.342Z,3.47
2023-07-08T12:21:37.651Z,3.40
2023-07-08T12:24:06.382Z,3.55
2023-07-08T12:26:37.398Z,3.90
2023-07-08T12:29:04.118Z,3.47
2023-07-08T12:31:32.857Z,3.35
2023-07-08T12:33:59.967Z,3.00
2023-07-08T12:36:29.846Z,3.35
2023-07-08T12:38:58.931Z,3.60
2023-07-08T12:41:29.451Z,3.05
2023-07-08T12:43:56.600Z,3.10
2023-07-08T12:46:26.243Z,3.13
2023-07-08T12:48:53.547Z,3.30
2023-07-08T12:51:29.089Z,3.17
2023-07-08T12:53:56.463Z,3.35
2023-07-08T12:56:24.959Z,3.55
2023-07-08T12:58:54.632Z,3.35
2023-07-08T13:01:27.849Z,3.00
2023-07-08T13:04:00.161Z,3.00
2023-07-08T13:06:31.047Z,3.50
2023-07-08T13:09:09.472Z,3.67
2023-07-08T13:11:38.118Z,3.80
2023-07-08T13:14:07.959Z,4.20
2023-07-08T13:16:36.352Z,3.40
2023-07-08T13:19:04.314Z,3.05
2023-07-08T13:21:33.330Z,3.80
2023-07-08T13:24:00.128Z,3.67
2023-07-08T13:26:30.972Z,3.45
2023-07-08T13:29:17.959Z,3.50
2023-07-08T13:31:50.277Z,3.33
2023-07-08T13:34:19.879Z,3.67
2023-07-08T13:36:50.187Z,3.88
2023-07-08T13:39:33.639Z,2.92
2023-07-08T13:42:01.688Z,3.70
2023-07-08T13:44:28.829Z,3.72
2023-07-08T13:46:58.910Z,3.70
2023-07-08T13:49:32.345Z,3.67
2023-07-08T13:52:13.502Z,3.88
2023-07-08T13:54:45.319Z,3.67
2023-07-08T13:57:15.992Z,3.85
2023-07-08T13:59:42.983Z,3.95
2023-07-08T14:02:32.245Z,4.22
2023-07-08T14:05:00.914Z,4.13
2023-07-08T14:07:32.929Z,4.18
2023-07-08T14:09:59.710Z,4.65
2023-07-08T14:12:26.650Z,3.97
2023-07-08T14:14:53.477Z,4.32
2023-07-08T14:17:25.863Z,3.78
2023-07-08T14:19:53.066Z,4.00
2023-07-08T14:22:31.288Z,4.18
2023-07-08T14:25:05.666Z,3.97
2023-07-08T14:27:32.611Z,3.80
2023-07-08T14:29:59.060Z,3.50
2023-07-08T14:32:31.265Z,4.30
2023-07-08T14:35:20.120Z,3.90
2023-07-08T14:37:47.229Z,4.05
2023-07-08T14:40:21.222Z,4.38
2023-07-08T14:42:49.275Z,3.88
2023-07-08T14:45:17.367Z,4.05
2023-07-08T14:47:43.946Z,4.28
2023-07-08T14:50:15.725Z,4.05
2023-07-08T14:52:42.255Z,4.10
2023-07-08T14:55:10.933Z,3.70
2023-07-08T14:57:46.844Z,4.18
2023-07-08T15:00:19.141Z,3.90
2023-07-08T15:02:48.323Z,4.25
2023-07-08T15:05:25.449Z,4.32
2023-07-08T15:07:54.871Z,3.92
2023-07-08T15:10:25.925Z,4.68
2023-07-08T15:12:52.437Z,4.60
2023-07-08T15:15:31.110Z,4.20
2023-07-08T15:17:58.919Z,4.22
2023-07-08T15:20:26.292Z,4.40
2023-07-08T15:22:52.978Z,4.60
2023-07-08T15:25:20.276Z,4.25
2023-07-08T15:27:49.888Z,4.13
2023-07-08T15:30:20.233Z,4.65
2023-07-08T15:32:47.623Z,4.25
2023-07-08T15:35:19.823Z,4.28
2023-07-08T15:37:48.600Z,4.30
2023-07-08T15:40:18.269Z,4.28
2023-07-08T15:42:47.401Z,4.57
2023-07-08T15:45:16.767Z,4.60
2023-07-08T15:47:43.458Z,4.20
2023-07-08T15:50:16.076Z,4.32
2023-07-08T15:52:43.685Z,4.15
2023-07-08T15:55:12.704Z,4.57
2023-07-08T15:57:47.748Z,4.55
2023-07-08T16:00:21.920Z,4.50
2023-07-08T16:02:51.901Z,4.22
2023-07-08T16:05:20.650Z,4.47
2023-07-08T16:07:52.277Z,4.38
2023-07-08T16:10:19.184Z,4.25
2023-07-08T16:12:47.847Z,3.92
2023-07-08T16:15:17.160Z,4.22
2023-07-08T16:17:44.838Z,4.22
2023-07-08T16:20:21.708Z,4.40
2023-07-08T16:22:49.566Z,3.80
2023-07-08T16:25:18.423Z,4.20
2023-07-08T16:27:47.803Z,4.22
2023-07-08T16:30:17.369Z,4.50
2023-07-08T16:32:44.764Z,4.05
2023-07-08T16:35:15.876Z,4.13
2023-07-08T16:37:43.102Z,4.80
2023-07-08T16:40:21.215Z,4.20
2023-07-08T16:42:49.999Z,3.85
2023-07-08T16:45:19.257Z,4.40
2023-07-08T16:47:47.094Z,4.28
2023-07-08T16:50:16.706Z,4.15
2023-07-08T16:52:43.624Z,4.63
2023-07-08T16:55:16.252Z,4.32
2023-07-08T16:57:43.557Z,4.55
2023-07-08T17:00:16.539Z,4.22
2023-07-08T17:02:43.171Z,4.78
2023-07-08T17:05:31.785Z,4.03
2023-07-08T17:07:58.477Z,4.15
2023-07-08T17:10:25.367Z,4.15
2023-07-08T17:12:53.810Z,4.60
2023-07-08T17:15:22.955Z,4.63
2023-07-08T17:17:58.914Z,4.13
2023-07-08T17:20:30.278Z,4.55
2023-07-08T17:22:56.729Z,4.60
2023-07-08T17:25:25.565Z,3.90
2023-07-08T17:27:54.567Z,5.10
2023-07-08T17:30:22.390Z,4.53
2023-07-08T17:32:55.606Z,4.20
2023-07-08T17:35:26.080Z,4.25
2023-07-08T17:37:53.709Z,4.63
2023-07-08T17:40:22.612Z,4.82
2023-07-08T17:42:50.400Z,5.20
2023-07-08T17:45:20.335Z,4.57
2023-07-08T17:47:49.371Z,5.03
2023-07-08T17:50:18.665Z,5.13
2023-07-08T17:52:45.764Z,4.75
2023-07-08T17:55:12.921Z,5.22
2023-07-08T17:57:41.049Z,4.55
2023-07-08T18:00:15.002Z,4.85
2023-07-08T18:02:42.066Z,4.70
2023-07-08T18:05:21.619Z,5.32
2023-07-08T18:07:50.366Z,4.65
2023-07-08T18:10:19.008Z,4.90
2023-07-08T18:12:47.210Z,4.13
2023-07-08T18:15:28.756Z,4.68
2023-07-08T18:17:58.238Z,4.50
2023-07-08T18:20:37.230Z,5.07
2023-07-08T18:23:04.744Z,4.53
2023-07-08T18:25:36.016Z,4.70
2023-07-08T18:28:02.512Z,4.80
2023-07-08T18:30:30.280Z,4.53
2023-07-08T18:32:57.330Z,4.97
2023-07-08T18:35:29.530Z,5.10
2023-07-08T18:37:57.339Z,5.78
2023-07-08T18:40:37.685Z,5.15
2023-07-08T18:43:16.412Z,4.75
2023-07-08T18:45:43.345Z,5.05
2023-07-08T18:48:15.420Z,4.55
2023-07-08T18:50:44.343Z,4.75
2023-07-08T18:53:18.002Z,4.50
2023-07-08T18:55:46.051Z,4.82
2023-07-08T18:58:14.269Z,4.80
2023-07-08T19:00:42.424Z,5.05
2023-07-08T19:03:26.959Z,4.20
2023-07-08T19:05:54.778Z,4.45
2023-07-08T19:08:22.778Z,4.55
2023-07-08T19:10:55.669Z,4.53
2023-07-08T19:13:25.531Z,4.88
2023-07-08T19:15:53.569Z,4.85
2023-07-08T19:18:20.714Z,4.97
2023-07-08T19:20:48.872Z,4.53
2023-07-08T19:23:27.133Z,5.35
2023-07-08T19:25:54.385Z,4.80
2023-07-08T19:28:21.049Z,4.75
2023-07-08T19:30:53.584Z,4.80
2023-07-08T19:33:20.629Z,4.50
2023-07-08T19:35:48.183Z,4.82
2023-07-08T19:38:17.322Z,5.00
2023-07-08T19:40:52.904Z,5.32
2023-07-08T19:43:21.642Z,4.82
2023-07-08T19:45:48.506Z,4.45
2023-07-08T19:48:15.506Z,4.90
2023-07-08T19:50:42.239Z,4.70
2023-07-08T19:53:11.157Z,4.18
2023-07-08T19:55:38.417Z,4.72
2023-07-08T19:58:11.023Z,4.63
2023-07-08T20:00:44.400Z,3.88
2023-07-08T20:03:12.483Z,4.30
2023-07-08T20:05:39.996Z,4.13
2023-07-08T20:08:21.743Z,3.47
2023-07-08T20:10:55.153Z,3.78
2023-07-08T20:13:26.830Z,3.80
2023-07-08T20:15:53.329Z,3.50
2023-07-08T20:18:28.292Z,3.67
2023-07-08T20:20:58.952Z,3.55
2023-07-08T20:23:27.165Z,3.65
2023-07-08T20:25:54.323Z,3.38
2023-07-08T20:28:31.590Z,3.67
2023-07-08T20:31:04.487Z,3.80
2023-07-08T20:33:31.215Z,3.95
2023-07-08T20:35:57.783Z,3.42
2023-07-08T20:38:24.589Z,3.40
2023-07-08T20:40:51.156Z,3.95
2023-07-08T20:43:21.373Z,3.47
2023-07-08T20:45:54.729Z,3.85
2023-07-08T20:48:24.732Z,4.00
2023-07-08T20:50:52.174Z,3.30
2023-07-08T20:53:19.786Z,3.60
2023-07-08T20:55:48.272Z,3.50
2023-07-08T20:58:20.921Z,3.75
2023-07-08T21:00:48.420Z,3.83
2023-07-08T21:03:19.666Z,3.33
2023-07-08T21:05:52.640Z,3.45
2023-07-08T21:08:40.551Z,3.78
2023-07-08T21:11:08.259Z,4.00
2023-07-08T21:13:39.034Z,4.13
2023-07-08T21:16:15.896Z,3.63
2023-07-08T21:18:42.664Z,3.75
2023-07-08T21:21:11.653Z,4.35
2023-07-08T21:23:39.382Z,3.38
2023-07-08T21:26:17.005Z,4.32
2023-07-08T21:28:46.761Z,3.70
2023-07-08T21:31:14.346Z,3.90
2023-07-08T21:33:40.872Z,4.13
2023-07-08T21:36:22.021Z,3.88
2023-07-08T21:38:48.498Z,4.07
2023-07-08T21:41:15.532Z,4.03
2023-07-08T21:43:42.191Z,4.68
2023-07-08T21:46:09.102Z,3.97
2023-07-08T21:48:36.220Z,3.70
2023-07-08T21:51:03.447Z,4.22
2023-07-08T21:53:38.077Z,4.28
2023-07-08T21:56:05.173Z,3.95
2023-07-08T21:58:32.324Z,3.97
2023-07-08T22:00:58.882Z,4.28
2023-07-08T22:03:30.997Z,4.18
2023-07-08T22:05:59.093Z,3.85
2023-07-08T22:08:28.147Z,4.00
2023-07-08T22:10:58.482Z,4.20
2023-07-08T22:13:32.562Z,3.72
2023-07-08T22:16:14.801Z,4.33
2023-07-08T22:18:45.386Z,3.72
2023-07-08T22:21:31.705Z,4.07
2023-07-08T22:23:59.896Z,4.53
2023-07-08T22:26:27.659Z,4.20
2023-07-08T22:28:54.160Z,4.15
2023-07-08T22:31:23.741Z,4.03
2023-07-08T22:33:50.588Z,4.10
2023-07-08T22:36:17.150Z,4.97
2023-07-08T22:38:47.260Z,4.15
2023-07-08T22:41:13.822Z,3.78
2023-07-08T22:43:40.893Z,4.70
2023-07-08T22:46:09.812Z,3.88
2023-07-08T22:48:38.860Z,4.55
2023-07-08T22:51:05.924Z,4.32
2023-07-08T22:53:35.231Z,3.90
2023-07-08T22:56:03.349Z,4.40
2023-07-08T22:58:33.453Z,4.53
2023-07-08T23:01:00.281Z,5.10
2023-07-08T23:03:26.928Z,5.15
2023-07-08T23:05:59.623Z,4.25
2023-07-08T23:08:29.079Z,4.53
2023-07-08T23:10:56.011Z,4.20
2023-07-08T23:13:36.507Z,4.32
2023-07-08T23:16:23.966Z,4.10
2023-07-08T23:18:52.817Z,4.60
2023-07-08T23:21:21.073Z,4.45
2023-07-08T23:23:50.785Z,4.60
2023-07-08T23:26:21.214Z,3.90
2023-07-08T23:28:53.213Z,4.38
2023-07-08T23:31:20.120Z,4.30
2023-07-08T23:33:47.644Z,4.65
2023-07-08T23:36:39.276Z,4.55
2023-07-08T23:39:18.430Z,4.82
2023-07-08T23:41:45.684Z,4.32
2023-07-08T23:44:13.216Z,4.30
2023-07-08T23:46:40.814Z,4.35
2023-07-08T23:49:23.461Z,4.28
2023-07-08T23:51:50.597Z,4.43
2023-07-08T23:54:21.314Z,4.43
2023-07-08T23:56:47.954Z,4.38
2023-07-08T23:59:17.241Z,4.70
